sensor_id;sensor_type;location;lat;lon;timestamp;temperature;humidity
56044;DHT22;41912;51.022;3.664;2023-04-25T00:01:36;10.80;99.90
56044;DHT22;41912;51.022;3.664;2023-04-25T00:04:03;10.80;99.90
56044;DHT22;41912;51.022;3.664;2023-04-25T00:06:31;10.80;99.90
56044;DHT22;41912;51.022;3.664;2023-04-25T00:08:57;10.70;99.90
56044;DHT22;41912;51.022;3.664;2023-04-25T00:11:23;10.70;99.90
56044;DHT22;41912;51.022;3.664;2023-04-25T00:13:49;10.80;99.90
56044;DHT22;41912;51.022;3.664;2023-04-25T00:16:18;10.80;99.90
56044;DHT22;41912;51.022;3.664;2023-04-25T00:18:44;10.70;99.90
56044;DHT22;41912;51.022;3.664;2023-04-25T00:21:11;10.80;99.90
56044;DHT22;41912;51.022;3.664;2023-04-25T00:23:37;10.80;99.90
56044;DHT22;41912;51.022;3.664;2023-04-25T00:26:04;10.80;99.90
56044;DHT22;41912;51.022;3.664;2023-04-25T00:28:30;10.80;99.90
56044;DHT22;41912;51.022;3.664;2023-04-25T00:30:55;10.80;99.90
56044;DHT22;41912;51.022;3.664;2023-04-25T00:33:21;10.80;99.90
56044;DHT22;41912;51.022;3.664;2023-04-25T00:35:47;10.80;99.90
56044;DHT22;41912;51.022;3.664;2023-04-25T00:38:12;10.80;99.90
56044;DHT22;41912;51.022;3.664;2023-04-25T00:40:38;10.80;99.90
56044;DHT22;41912;51.022;3.664;2023-04-25T00:43:04;10.80;99.90
56044;DHT22;41912;51.022;3.664;2023-04-25T00:45:30;10.80;99.90
56044;DHT22;41912;51.022;3.664;2023-04-25T00:47:56;10.70;99.90
56044;DHT22;41912;51.022;3.664;2023-04-25T00:50:22;10.70;99.90
56044;DHT22;41912;51.022;3.664;2023-04-25T00:52:47;10.70;99.90
56044;DHT22;41912;51.022;3.664;2023-04-25T00:55:13;10.60;99.90
56044;DHT22;41912;51.022;3.664;2023-04-25T00:57:39;10.60;99.90
56044;DHT22;41912;51.022;3.664;2023-04-25T01:00:06;10.60;99.90
56044;DHT22;41912;51.022;3.664;2023-04-25T01:02:33;10.60;99.90
56044;DHT22;41912;51.022;3.664;2023-04-25T01:04:59;10.60;99.90
56044;DHT22;41912;51.022;3.664;2023-04-25T01:07:25;10.60;99.90
56044;DHT22;41912;51.022;3.664;2023-04-25T01:09:52;10.70;99.90
56044;DHT22;41912;51.022;3.664;2023-04-25T01:12:18;10.60;99.90
56044;DHT22;41912;51.022;3.664;2023-04-25T01:14:43;10.60;99.90
56044;DHT22;41912;51.022;3.664;2023-04-25T01:17:10;10.60;99.90
56044;DHT22;41912;51.022;3.664;2023-04-25T01:19:36;10.60;99.90
56044;DHT22;41912;51.022;3.664;2023-04-25T01:22:02;10.60;99.90
56044;DHT22;41912;51.022;3.664;2023-04-25T01:24:27;10.50;99.90
56044;DHT22;41912;51.022;3.664;2023-04-25T01:26:54;10.50;99.90
56044;DHT22;41912;51.022;3.664;2023-04-25T01:29:22;10.50;99.90
56044;DHT22;41912;51.022;3.664;2023-04-25T01:31:48;10.50;99.90
56044;DHT22;41912;51.022;3.664;2023-04-25T01:34:15;10.50;99.90
56044;DHT22;41912;51.022;3.664;2023-04-25T01:36:40;10.50;99.90
56044;DHT22;41912;51.022;3.664;2023-04-25T01:39:07;10.50;99.90
56044;DHT22;41912;51.022;3.664;2023-04-25T01:41:32;10.50;99.90
56044;DHT22;41912;51.022;3.664;2023-04-25T01:44:00;10.50;99.90
56044;DHT22;41912;51.022;3.664;2023-04-25T01:46:26;10.50;99.90
56044;DHT22;41912;51.022;3.664;2023-04-25T01:48:52;10.50;99.90
56044;DHT22;41912;51.022;3.664;2023-04-25T01:51:17;10.50;99.90
56044;DHT22;41912;51.022;3.664;2023-04-25T01:53:43;10.50;99.90
56044;DHT22;41912;51.022;3.664;2023-04-25T01:56:09;10.40;99.90
56044;DHT22;41912;51.022;3.664;2023-04-25T01:58:35;10.40;99.90
56044;DHT22;41912;51.022;3.664;2023-04-25T02:01:01;10.40;99.90
56044;DHT22;41912;51.022;3.664;2023-04-25T02:03:26;10.40;99.90
56044;DHT22;41912;51.022;3.664;2023-04-25T02:05:52;10.40;99.90
56044;DHT22;41912;51.022;3.664;2023-04-25T02:08:18;10.30;99.90
56044;DHT22;41912;51.022;3.664;2023-04-25T02:10:44;10.30;99.90
56044;DHT22;41912;51.022;3.664;2023-04-25T02:13:09;10.30;99.90
56044;DHT22;41912;51.022;3.664;2023-04-25T02:15:35;10.30;99.90
56044;DHT22;41912;51.022;3.664;2023-04-25T02:18:01;10.30;99.90
56044;DHT22;41912;51.022;3.664;2023-04-25T02:20:28;10.40;99.90
56044;DHT22;41912;51.022;3.664;2023-04-25T02:22:54;10.30;99.90
56044;DHT22;41912;51.022;3.664;2023-04-25T02:25:20;10.30;99.90
56044;DHT22;41912;51.022;3.664;2023-04-25T02:27:47;10.20;99.90
56044;DHT22;41912;51.022;3.664;2023-04-25T02:30:12;10.20;99.90
56044;DHT22;41912;51.022;3.664;2023-04-25T02:32:39;10.20;99.90
56044;DHT22;41912;51.022;3.664;2023-04-25T02:35:05;10.20;99.90
56044;DHT22;41912;51.022;3.664;2023-04-25T02:37:32;10.20;99.90
56044;DHT22;41912;51.022;3.664;2023-04-25T02:39:58;10.20;99.90
56044;DHT22;41912;51.022;3.664;2023-04-25T02:42:24;10.20;99.90
56044;DHT22;41912;51.022;3.664;2023-04-25T02:44:49;10.20;99.90
56044;DHT22;41912;51.022;3.664;2023-04-25T02:47:15;10.20;99.90
56044;DHT22;41912;51.022;3.664;2023-04-25T02:49:41;10.20;99.90
56044;DHT22;41912;51.022;3.664;2023-04-25T02:52:06;10.10;99.90
56044;DHT22;41912;51.022;3.664;2023-04-25T02:54:32;10.10;99.90
56044;DHT22;41912;51.022;3.664;2023-04-25T02:56:58;10.10;99.90
56044;DHT22;41912;51.022;3.664;2023-04-25T02:59:23;10.10;99.90
56044;DHT22;41912;51.022;3.664;2023-04-25T03:01:49;10.00;99.90
56044;DHT22;41912;51.022;3.664;2023-04-25T03:04:15;10.00;99.90
56044;DHT22;41912;51.022;3.664;2023-04-25T03:06:40;10.00;99.90
56044;DHT22;41912;51.022;3.664;2023-04-25T03:09:06;10.10;99.90
56044;DHT22;41912;51.022;3.664;2023-04-25T03:11:31;10.10;99.90
56044;DHT22;41912;51.022;3.664;2023-04-25T03:13:57;10.00;99.90
56044;DHT22;41912;51.022;3.664;2023-04-25T03:16:23;9.90;99.90
56044;DHT22;41912;51.022;3.664;2023-04-25T03:18:49;9.90;99.90
56044;DHT22;41912;51.022;3.664;2023-04-25T03:21:16;9.90;99.90
56044;DHT22;41912;51.022;3.664;2023-04-25T03:23:42;9.90;99.90
56044;DHT22;41912;51.022;3.664;2023-04-25T03:26:07;9.90;99.90
56044;DHT22;41912;51.022;3.664;2023-04-25T03:28:33;9.80;99.90
56044;DHT22;41912;51.022;3.664;2023-04-25T03:30:59;9.90;99.90
56044;DHT22;41912;51.022;3.664;2023-04-25T03:33:24;9.80;99.90
56044;DHT22;41912;51.022;3.664;2023-04-25T03:35:50;9.70;99.90
56044;DHT22;41912;51.022;3.664;2023-04-25T03:38:17;9.70;99.90
56044;DHT22;41912;51.022;3.664;2023-04-25T03:40:43;9.70;99.90
56044;DHT22;41912;51.022;3.664;2023-04-25T03:43:08;9.70;99.90
56044;DHT22;41912;51.022;3.664;2023-04-25T03:45:34;9.80;99.90
56044;DHT22;41912;51.022;3.664;2023-04-25T03:48:00;9.70;99.90
56044;DHT22;41912;51.022;3.664;2023-04-25T03:50:25;9.70;99.90
56044;DHT22;41912;51.022;3.664;2023-04-25T03:52:51;9.80;99.90
56044;DHT22;41912;51.022;3.664;2023-04-25T03:55:16;9.70;99.90
56044;DHT22;41912;51.022;3.664;2023-04-25T03:57:42;9.70;99.90
56044;DHT22;41912;51.022;3.664;2023-04-25T04:00:08;9.70;99.90
56044;DHT22;41912;51.022;3.664;2023-04-25T04:02:35;9.70;99.90
56044;DHT22;41912;51.022;3.664;2023-04-25T04:05:02;9.70;99.90
56044;DHT22;41912;51.022;3.664;2023-04-25T04:07:28;9.70;99.90
56044;DHT22;41912;51.022;3.664;2023-04-25T04:09:53;9.70;99.90
56044;DHT22;41912;51.022;3.664;2023-04-25T04:12:19;9.70;99.90
56044;DHT22;41912;51.022;3.664;2023-04-25T04:14:45;9.60;99.90
56044;DHT22;41912;51.022;3.664;2023-04-25T04:17:10;9.60;99.90
56044;DHT22;41912;51.022;3.664;2023-04-25T04:19:36;9.70;99.90
56044;DHT22;41912;51.022;3.664;2023-04-25T04:22:02;9.70;99.90
56044;DHT22;41912;51.022;3.664;2023-04-25T04:24:27;9.60;99.90
56044;DHT22;41912;51.022;3.664;2023-04-25T04:26:53;9.60;99.90
56044;DHT22;41912;51.022;3.664;2023-04-25T04:29:19;9.60;99.90
56044;DHT22;41912;51.022;3.664;2023-04-25T04:31:49;9.60;99.90
56044;DHT22;41912;51.022;3.664;2023-04-25T04:34:18;9.60;99.90
56044;DHT22;41912;51.022;3.664;2023-04-25T04:36:47;9.60;99.90
56044;DHT22;41912;51.022;3.664;2023-04-25T04:39:13;9.60;99.90
56044;DHT22;41912;51.022;3.664;2023-04-25T04:41:39;9.60;99.90
56044;DHT22;41912;51.022;3.664;2023-04-25T04:44:05;9.60;99.90
56044;DHT22;41912;51.022;3.664;2023-04-25T04:46:32;9.60;99.90
56044;DHT22;41912;51.022;3.664;2023-04-25T04:49:06;9.50;99.90
56044;DHT22;41912;51.022;3.664;2023-04-25T04:51:31;9.60;99.90
56044;DHT22;41912;51.022;3.664;2023-04-25T04:53:58;9.60;99.90
56044;DHT22;41912;51.022;3.664;2023-04-25T04:56:30;9.50;99.90
56044;DHT22;41912;51.022;3.664;2023-04-25T04:58:59;9.50;99.90
56044;DHT22;41912;51.022;3.664;2023-04-25T05:01:26;9.50;99.90
56044;DHT22;41912;51.022;3.664;2023-04-25T05:03:52;9.50;99.90
56044;DHT22;41912;51.022;3.664;2023-04-25T05:06:18;9.50;99.90
56044;DHT22;41912;51.022;3.664;2023-04-25T05:08:44;9.50;99.90
56044;DHT22;41912;51.022;3.664;2023-04-25T05:11:10;9.50;99.90
56044;DHT22;41912;51.022;3.664;2023-04-25T05:13:36;9.50;99.90
56044;DHT22;41912;51.022;3.664;2023-04-25T05:16:02;9.50;99.90
56044;DHT22;41912;51.022;3.664;2023-04-25T05:18:27;9.60;99.90
56044;DHT22;41912;51.022;3.664;2023-04-25T05:20:53;9.60;99.90
56044;DHT22;41912;51.022;3.664;2023-04-25T05:23:19;9.60;99.90
56044;DHT22;41912;51.022;3.664;2023-04-25T05:25:45;9.70;99.90
56044;DHT22;41912;51.022;3.664;2023-04-25T05:28:12;9.70;99.90
56044;DHT22;41912;51.022;3.664;2023-04-25T05:30:38;9.70;99.90
56044;DHT22;41912;51.022;3.664;2023-04-25T05:33:04;9.70;99.90
56044;DHT22;41912;51.022;3.664;2023-04-25T05:35:29;9.70;99.90
56044;DHT22;41912;51.022;3.664;2023-04-25T05:37:55;9.70;99.90
56044;DHT22;41912;51.022;3.664;2023-04-25T05:40:21;9.70;99.90
56044;DHT22;41912;51.022;3.664;2023-04-25T05:42:46;9.70;99.90
56044;DHT22;41912;51.022;3.664;2023-04-25T05:45:12;9.70;99.90
56044;DHT22;41912;51.022;3.664;2023-04-25T05:47:38;9.70;99.90
56044;DHT22;41912;51.022;3.664;2023-04-25T05:50:04;9.70;99.90
56044;DHT22;41912;51.022;3.664;2023-04-25T05:52:30;9.80;99.90
56044;DHT22;41912;51.022;3.664;2023-04-25T05:54:55;9.80;99.90
56044;DHT22;41912;51.022;3.664;2023-04-25T05:57:23;9.80;99.90
56044;DHT22;41912;51.022;3.664;2023-04-25T05:59:49;9.80;99.90
56044;DHT22;41912;51.022;3.664;2023-04-25T06:02:15;9.70;99.90
56044;DHT22;41912;51.022;3.664;2023-04-25T06:04:41;9.70;99.90
56044;DHT22;41912;51.022;3.664;2023-04-25T06:07:07;9.70;99.90
56044;DHT22;41912;51.022;3.664;2023-04-25T06:09:32;9.70;99.90
56044;DHT22;41912;51.022;3.664;2023-04-25T06:11:58;9.70;99.90
56044;DHT22;41912;51.022;3.664;2023-04-25T06:14:23;9.70;99.90
56044;DHT22;41912;51.022;3.664;2023-04-25T06:16:49;9.70;99.90
56044;DHT22;41912;51.022;3.664;2023-04-25T06:19:14;9.70;99.90
56044;DHT22;41912;51.022;3.664;2023-04-25T06:21:42;9.80;99.90
56044;DHT22;41912;51.022;3.664;2023-04-25T06:24:08;9.80;99.90
56044;DHT22;41912;51.022;3.664;2023-04-25T06:26:34;9.90;99.90
56044;DHT22;41912;51.022;3.664;2023-04-25T06:28:59;9.80;99.90
56044;DHT22;41912;51.022;3.664;2023-04-25T06:31:25;9.80;99.90
56044;DHT22;41912;51.022;3.664;2023-04-25T06:33:51;9.80;99.90
56044;DHT22;41912;51.022;3.664;2023-04-25T06:36:20;9.80;99.90
56044;DHT22;41912;51.022;3.664;2023-04-25T06:38:50;9.80;99.90
56044;DHT22;41912;51.022;3.664;2023-04-25T06:41:16;9.80;99.90
56044;DHT22;41912;51.022;3.664;2023-04-25T06:43:42;9.80;99.90
56044;DHT22;41912;51.022;3.664;2023-04-25T06:46:07;9.80;99.90
56044;DHT22;41912;51.022;3.664;2023-04-25T06:48:33;9.90;99.90
56044;DHT22;41912;51.022;3.664;2023-04-25T06:50:58;9.80;99.90
56044;DHT22;41912;51.022;3.664;2023-04-25T06:53:24;9.80;99.90
56044;DHT22;41912;51.022;3.664;2023-04-25T06:55:50;9.80;99.90
56044;DHT22;41912;51.022;3.664;2023-04-25T06:58:15;9.90;99.90
56044;DHT22;41912;51.022;3.664;2023-04-25T07:00:41;9.90;99.90
56044;DHT22;41912;51.022;3.664;2023-04-25T07:03:07;9.90;99.90
56044;DHT22;41912;51.022;3.664;2023-04-25T07:05:33;10.00;99.90
56044;DHT22;41912;51.022;3.664;2023-04-25T07:07:59;10.00;99.90
56044;DHT22;41912;51.022;3.664;2023-04-25T07:10:25;10.00;99.90
56044;DHT22;41912;51.022;3.664;2023-04-25T07:12:51;10.00;99.90
56044;DHT22;41912;51.022;3.664;2023-04-25T07:15:17;10.00;99.90
56044;DHT22;41912;51.022;3.664;2023-04-25T07:17:42;10.00;99.90
56044;DHT22;41912;51.022;3.664;2023-04-25T07:20:08;10.00;99.90
56044;DHT22;41912;51.022;3.664;2023-04-25T07:22:35;10.10;99.90
56044;DHT22;41912;51.022;3.664;2023-04-25T07:25:00;10.00;99.90
56044;DHT22;41912;51.022;3.664;2023-04-25T07:27:26;10.10;99.90
56044;DHT22;41912;51.022;3.664;2023-04-25T07:29:52;10.00;99.90
56044;DHT22;41912;51.022;3.664;2023-04-25T07:32:18;10.10;99.90
56044;DHT22;41912;51.022;3.664;2023-04-25T07:34:43;10.10;99.90
56044;DHT22;41912;51.022;3.664;2023-04-25T07:37:09;10.10;99.90
56044;DHT22;41912;51.022;3.664;2023-04-25T07:39:35;10.10;99.90
56044;DHT22;41912;51.022;3.664;2023-04-25T07:42:02;10.20;99.90
56044;DHT22;41912;51.022;3.664;2023-04-25T07:44:29;10.20;99.90
56044;DHT22;41912;51.022;3.664;2023-04-25T07:47:04;10.30;99.90
56044;DHT22;41912;51.022;3.664;2023-04-25T07:49:32;10.40;99.90
56044;DHT22;41912;51.022;3.664;2023-04-25T07:51:58;10.50;99.90
56044;DHT22;41912;51.022;3.664;2023-04-25T07:54:24;10.60;99.90
56044;DHT22;41912;51.022;3.664;2023-04-25T07:56:50;10.70;99.90
56044;DHT22;41912;51.022;3.664;2023-04-25T07:59:16;10.70;99.90
56044;DHT22;41912;51.022;3.664;2023-04-25T08:01:41;10.70;99.90
56044;DHT22;41912;51.022;3.664;2023-04-25T08:04:07;10.70;99.90
56044;DHT22;41912;51.022;3.664;2023-04-25T08:06:33;10.70;99.90
56044;DHT22;41912;51.022;3.664;2023-04-25T08:08:58;10.80;99.90
56044;DHT22;41912;51.022;3.664;2023-04-25T08:11:24;10.70;99.90
56044;DHT22;41912;51.022;3.664;2023-04-25T08:13:50;10.70;99.90
56044;DHT22;41912;51.022;3.664;2023-04-25T08:16:16;10.70;99.90
56044;DHT22;41912;51.022;3.664;2023-04-25T08:18:41;10.60;99.90
56044;DHT22;41912;51.022;3.664;2023-04-25T08:21:07;10.70;99.90
56044;DHT22;41912;51.022;3.664;2023-04-25T08:23:34;10.60;99.90
56044;DHT22;41912;51.022;3.664;2023-04-25T08:26:00;10.50;99.90
56044;DHT22;41912;51.022;3.664;2023-04-25T08:28:25;10.60;99.90
56044;DHT22;41912;51.022;3.664;2023-04-25T08:30:51;10.60;99.90
56044;DHT22;41912;51.022;3.664;2023-04-25T08:33:16;10.60;99.90
56044;DHT22;41912;51.022;3.664;2023-04-25T08:35:43;10.70;99.90
56044;DHT22;41912;51.022;3.664;2023-04-25T08:38:09;10.70;99.90
56044;DHT22;41912;51.022;3.664;2023-04-25T08:40:37;10.70;99.90
56044;DHT22;41912;51.022;3.664;2023-04-25T08:43:04;10.80;99.90
56044;DHT22;41912;51.022;3.664;2023-04-25T08:45:32;10.90;99.90
56044;DHT22;41912;51.022;3.664;2023-04-25T08:47:58;11.00;99.90
56044;DHT22;41912;51.022;3.664;2023-04-25T08:50:25;11.20;99.90
56044;DHT22;41912;51.022;3.664;2023-04-25T08:52:53;11.30;99.90
56044;DHT22;41912;51.022;3.664;2023-04-25T08:55:21;11.30;98.90
56044;DHT22;41912;51.022;3.664;2023-04-25T08:57:47;11.30;99.30
56044;DHT22;41912;51.022;3.664;2023-04-25T09:00:13;11.30;99.90
56044;DHT22;41912;51.022;3.664;2023-04-25T09:02:40;11.30;99.70
56044;DHT22;41912;51.022;3.664;2023-04-25T09:05:08;11.30;99.50
56044;DHT22;41912;51.022;3.664;2023-04-25T09:07:35;11.50;99.40
56044;DHT22;41912;51.022;3.664;2023-04-25T09:10:00;11.50;99.40
56044;DHT22;41912;51.022;3.664;2023-04-25T09:12:29;11.50;98.80
56044;DHT22;41912;51.022;3.664;2023-04-25T09:15:07;11.50;99.50
56044;DHT22;41912;51.022;3.664;2023-04-25T09:17:33;11.40;99.90
56044;DHT22;41912;51.022;3.664;2023-04-25T09:20:12;11.40;99.90
56044;DHT22;41912;51.022;3.664;2023-04-25T09:22:38;11.30;99.90
56044;DHT22;41912;51.022;3.664;2023-04-25T09:25:13;11.20;99.90
56044;DHT22;41912;51.022;3.664;2023-04-25T09:27:54;11.10;99.90
56044;DHT22;41912;51.022;3.664;2023-04-25T09:30:31;11.10;99.90
56044;DHT22;41912;51.022;3.664;2023-04-25T09:33:07;11.10;99.90
56044;DHT22;41912;51.022;3.664;2023-04-25T09:35:43;11.10;99.90
56044;DHT22;41912;51.022;3.664;2023-04-25T09:38:12;11.10;99.90
56044;DHT22;41912;51.022;3.664;2023-04-25T09:40:42;11.20;99.90
56044;DHT22;41912;51.022;3.664;2023-04-25T09:43:21;11.30;99.90
56044;DHT22;41912;51.022;3.664;2023-04-25T09:45:47;11.50;99.90
56044;DHT22;41912;51.022;3.664;2023-04-25T09:48:21;11.60;99.90
56044;DHT22;41912;51.022;3.664;2023-04-25T09:53:37;11.80;99.90
56044;DHT22;41912;51.022;3.664;2023-04-25T09:56:08;11.80;99.90
56044;DHT22;41912;51.022;3.664;2023-04-25T09:58:35;11.80;99.90
56044;DHT22;41912;51.022;3.664;2023-04-25T10:01:06;11.80;99.90
56044;DHT22;41912;51.022;3.664;2023-04-25T10:03:36;11.90;99.90
56044;DHT22;41912;51.022;3.664;2023-04-25T10:06:05;11.90;99.90
56044;DHT22;41912;51.022;3.664;2023-04-25T10:08:34;11.90;99.90
56044;DHT22;41912;51.022;3.664;2023-04-25T10:11:07;12.00;99.90
56044;DHT22;41912;51.022;3.664;2023-04-25T10:13:34;12.00;99.90
56044;DHT22;41912;51.022;3.664;2023-04-25T10:16:02;11.90;99.90
56044;DHT22;41912;51.022;3.664;2023-04-25T10:18:29;11.80;99.90
56044;DHT22;41912;51.022;3.664;2023-04-25T10:20:59;11.80;99.90
56044;DHT22;41912;51.022;3.664;2023-04-25T10:23:25;11.80;99.90
56044;DHT22;41912;51.022;3.664;2023-04-25T10:25:52;11.80;99.90
56044;DHT22;41912;51.022;3.664;2023-04-25T10:28:19;11.80;99.90
56044;DHT22;41912;51.022;3.664;2023-04-25T10:31:01;11.70;99.90
56044;DHT22;41912;51.022;3.664;2023-04-25T10:33:40;11.60;99.90
56044;DHT22;41912;51.022;3.664;2023-04-25T10:36:17;11.80;99.90
56044;DHT22;41912;51.022;3.664;2023-04-25T10:38:43;11.80;99.90
56044;DHT22;41912;51.022;3.664;2023-04-25T10:41:10;11.90;99.90
56044;DHT22;41912;51.022;3.664;2023-04-25T10:43:41;12.00;99.90
56044;DHT22;41912;51.022;3.664;2023-04-25T10:46:23;12.00;99.90
56044;DHT22;41912;51.022;3.664;2023-04-25T10:48:51;12.20;99.90
56044;DHT22;41912;51.022;3.664;2023-04-25T10:51:25;12.30;99.90
56044;DHT22;41912;51.022;3.664;2023-04-25T10:56:21;12.20;98.10
56044;DHT22;41912;51.022;3.664;2023-04-25T10:58:48;12.20;98.50
56044;DHT22;41912;51.022;3.664;2023-04-25T11:01:15;12.30;98.40
56044;DHT22;41912;51.022;3.664;2023-04-25T11:03:42;12.30;98.10
56044;DHT22;41912;51.022;3.664;2023-04-25T11:09:10;12.40;98.50
56044;DHT22;41912;51.022;3.664;2023-04-25T11:11:38;12.50;97.80
56044;DHT22;41912;51.022;3.664;2023-04-25T11:14:04;12.50;98.90
56044;DHT22;41912;51.022;3.664;2023-04-25T11:16:30;12.50;97.20
56044;DHT22;41912;51.022;3.664;2023-04-25T11:18:57;12.50;98.30
56044;DHT22;41912;51.022;3.664;2023-04-25T11:21:24;12.60;99.20
56044;DHT22;41912;51.022;3.664;2023-04-25T11:23:51;12.60;99.00
56044;DHT22;41912;51.022;3.664;2023-04-25T11:26:19;12.70;97.90
56044;DHT22;41912;51.022;3.664;2023-04-25T11:28:45;12.70;98.60
56044;DHT22;41912;51.022;3.664;2023-04-25T11:31:12;12.70;99.40
56044;DHT22;41912;51.022;3.664;2023-04-25T11:33:38;12.70;99.20
56044;DHT22;41912;51.022;3.664;2023-04-25T11:36:06;12.70;98.40
56044;DHT22;41912;51.022;3.664;2023-04-25T11:38:32;12.70;97.20
56044;DHT22;41912;51.022;3.664;2023-04-25T11:40:57;12.60;95.90
56044;DHT22;41912;51.022;3.664;2023-04-25T11:43:23;12.60;96.30
56044;DHT22;41912;51.022;3.664;2023-04-25T11:45:50;12.60;95.10
56044;DHT22;41912;51.022;3.664;2023-04-25T11:48:18;12.60;95.40
56044;DHT22;41912;51.022;3.664;2023-04-25T11:50:44;12.60;97.00
56044;DHT22;41912;51.022;3.664;2023-04-25T11:53:10;12.50;95.00
56044;DHT22;41912;51.022;3.664;2023-04-25T11:55:36;12.50;95.30
56044;DHT22;41912;51.022;3.664;2023-04-25T11:58:01;12.50;95.00
56044;DHT22;41912;51.022;3.664;2023-04-25T12:00:28;12.40;96.00
56044;DHT22;41912;51.022;3.664;2023-04-25T12:02:55;12.40;95.90
56044;DHT22;41912;51.022;3.664;2023-04-25T12:05:27;12.40;96.80
56044;DHT22;41912;51.022;3.664;2023-04-25T12:07:53;12.60;98.10
56044;DHT22;41912;51.022;3.664;2023-04-25T12:10:20;12.80;97.70
56044;DHT22;41912;51.022;3.664;2023-04-25T12:12:47;12.90;97.80
56044;DHT22;41912;51.022;3.664;2023-04-25T12:15:17;12.90;95.70
56044;DHT22;41912;51.022;3.664;2023-04-25T12:17:46;12.90;95.50
56044;DHT22;41912;51.022;3.664;2023-04-25T12:20:24;12.90;95.20
56044;DHT22;41912;51.022;3.664;2023-04-25T12:22:51;13.10;95.20
56044;DHT22;41912;51.022;3.664;2023-04-25T12:25:40;13.20;93.60
56044;DHT22;41912;51.022;3.664;2023-04-25T12:28:32;13.40;92.80
56044;DHT22;41912;51.022;3.664;2023-04-25T12:31:06;13.30;92.50
56044;DHT22;41912;51.022;3.664;2023-04-25T12:33:36;13.10;93.20
56044;DHT22;41912;51.022;3.664;2023-04-25T12:36:03;13.20;92.40
56044;DHT22;41912;51.022;3.664;2023-04-25T12:38:37;13.10;93.70
56044;DHT22;41912;51.022;3.664;2023-04-25T12:41:04;13.10;93.70
56044;DHT22;41912;51.022;3.664;2023-04-25T12:43:30;13.00;93.20
56044;DHT22;41912;51.022;3.664;2023-04-25T12:45:57;13.00;92.80
56044;DHT22;41912;51.022;3.664;2023-04-25T12:48:23;13.00;93.30
56044;DHT22;41912;51.022;3.664;2023-04-25T12:50:49;12.90;93.30
56044;DHT22;41912;51.022;3.664;2023-04-25T12:53:20;13.00;93.50
56044;DHT22;41912;51.022;3.664;2023-04-25T12:55:46;12.90;94.50
56044;DHT22;41912;51.022;3.664;2023-04-25T12:58:13;12.90;94.50
56044;DHT22;41912;51.022;3.664;2023-04-25T13:00:39;12.90;93.50
56044;DHT22;41912;51.022;3.664;2023-04-25T13:03:04;12.90;94.10
56044;DHT22;41912;51.022;3.664;2023-04-25T13:05:30;12.80;94.30
56044;DHT22;41912;51.022;3.664;2023-04-25T13:07:56;12.60;93.80
56044;DHT22;41912;51.022;3.664;2023-04-25T13:10:22;12.60;94.20
56044;DHT22;41912;51.022;3.664;2023-04-25T13:12:48;12.80;96.40
56044;DHT22;41912;51.022;3.664;2023-04-25T13:15:13;13.00;94.10
56044;DHT22;41912;51.022;3.664;2023-04-25T13:17:41;13.20;92.10
56044;DHT22;41912;51.022;3.664;2023-04-25T13:20:07;13.20;91.40
56044;DHT22;41912;51.022;3.664;2023-04-25T13:22:35;13.30;91.60
56044;DHT22;41912;51.022;3.664;2023-04-25T13:25:05;13.40;90.90
56044;DHT22;41912;51.022;3.664;2023-04-25T13:27:32;13.50;90.80
56044;DHT22;41912;51.022;3.664;2023-04-25T13:30:03;13.60;90.70
56044;DHT22;41912;51.022;3.664;2023-04-25T13:32:36;13.50;90.20
56044;DHT22;41912;51.022;3.664;2023-04-25T13:35:03;13.60;92.00
56044;DHT22;41912;51.022;3.664;2023-04-25T13:37:29;13.60;93.60
56044;DHT22;41912;51.022;3.664;2023-04-25T13:39:55;13.60;93.80
56044;DHT22;41912;51.022;3.664;2023-04-25T13:42:22;13.60;95.10
56044;DHT22;41912;51.022;3.664;2023-04-25T13:44:48;13.70;95.30
56044;DHT22;41912;51.022;3.664;2023-04-25T13:47:14;13.60;94.10
56044;DHT22;41912;51.022;3.664;2023-04-25T13:49:39;13.50;94.80
56044;DHT22;41912;51.022;3.664;2023-04-25T13:52:05;13.60;95.20
56044;DHT22;41912;51.022;3.664;2023-04-25T13:54:31;13.80;94.60
56044;DHT22;41912;51.022;3.664;2023-04-25T13:56:57;13.70;92.80
56044;DHT22;41912;51.022;3.664;2023-04-25T13:59:24;13.70;91.60
56044;DHT22;41912;51.022;3.664;2023-04-25T14:01:51;13.70;91.40
56044;DHT22;41912;51.022;3.664;2023-04-25T14:04:17;13.70;91.80
56044;DHT22;41912;51.022;3.664;2023-04-25T14:06:42;13.80;91.20
56044;DHT22;41912;51.022;3.664;2023-04-25T14:09:08;13.90;90.90
56044;DHT22;41912;51.022;3.664;2023-04-25T14:11:36;14.10;90.00
56044;DHT22;41912;51.022;3.664;2023-04-25T14:14:02;14.00;88.80
56044;DHT22;41912;51.022;3.664;2023-04-25T14:16:29;14.00;89.40
56044;DHT22;41912;51.022;3.664;2023-04-25T14:18:55;14.10;90.00
56044;DHT22;41912;51.022;3.664;2023-04-25T14:21:20;14.00;85.30
56044;DHT22;41912;51.022;3.664;2023-04-25T14:23:46;13.80;87.00
56044;DHT22;41912;51.022;3.664;2023-04-25T14:26:12;13.80;89.00
56044;DHT22;41912;51.022;3.664;2023-04-25T14:28:38;13.80;90.20
56044;DHT22;41912;51.022;3.664;2023-04-25T14:31:04;13.80;90.50
56044;DHT22;41912;51.022;3.664;2023-04-25T14:33:30;13.90;86.90
56044;DHT22;41912;51.022;3.664;2023-04-25T14:35:56;14.10;88.20
56044;DHT22;41912;51.022;3.664;2023-04-25T14:38:22;14.20;89.80
56044;DHT22;41912;51.022;3.664;2023-04-25T14:40:49;14.10;90.00
56044;DHT22;41912;51.022;3.664;2023-04-25T14:43:15;14.00;88.80
56044;DHT22;41912;51.022;3.664;2023-04-25T14:45:40;13.80;91.00
56044;DHT22;41912;51.022;3.664;2023-04-25T14:48:06;13.70;90.30
56044;DHT22;41912;51.022;3.664;2023-04-25T14:50:32;13.50;90.00
56044;DHT22;41912;51.022;3.664;2023-04-25T14:52:58;13.50;90.00
56044;DHT22;41912;51.022;3.664;2023-04-25T14:55:26;13.60;90.40
56044;DHT22;41912;51.022;3.664;2023-04-25T14:57:55;13.70;88.90
56044;DHT22;41912;51.022;3.664;2023-04-25T15:00:22;13.70;88.00
56044;DHT22;41912;51.022;3.664;2023-04-25T15:02:48;13.80;89.80
56044;DHT22;41912;51.022;3.664;2023-04-25T15:05:14;14.00;90.10
56044;DHT22;41912;51.022;3.664;2023-04-25T15:07:40;13.90;87.40
56044;DHT22;41912;51.022;3.664;2023-04-25T15:10:07;14.00;86.90
56044;DHT22;41912;51.022;3.664;2023-04-25T15:12:39;14.10;88.30
56044;DHT22;41912;51.022;3.664;2023-04-25T15:15:08;14.20;86.60
56044;DHT22;41912;51.022;3.664;2023-04-25T15:17:43;14.40;88.70
56044;DHT22;41912;51.022;3.664;2023-04-25T15:20:11;14.40;82.70
56044;DHT22;41912;51.022;3.664;2023-04-25T15:22:38;14.40;83.00
56044;DHT22;41912;51.022;3.664;2023-04-25T15:25:04;14.40;84.00
56044;DHT22;41912;51.022;3.664;2023-04-25T15:27:30;14.30;83.50
56044;DHT22;41912;51.022;3.664;2023-04-25T15:29:56;14.30;82.40
56044;DHT22;41912;51.022;3.664;2023-04-25T15:32:21;14.20;81.80
56044;DHT22;41912;51.022;3.664;2023-04-25T15:34:48;14.10;85.60
56044;DHT22;41912;51.022;3.664;2023-04-25T15:37:14;14.00;84.70
56044;DHT22;41912;51.022;3.664;2023-04-25T15:39:39;14.00;85.60
56044;DHT22;41912;51.022;3.664;2023-04-25T15:42:05;13.90;83.00